createdAt,value
2019-06-08T00:00:25.037Z,81.18
2019-06-08T00:02:54.692Z,81.92
2019-06-08T00:05:24.492Z,81.37
2019-06-08T00:07:54.141Z,82.09
2019-06-08T00:10:25.749Z,81.33
2019-06-08T00:12:55.237Z,81.31
2019-06-08T00:15:24.935Z,81.96
2019-06-08T00:17:54.636Z,82.96
2019-06-08T00:20:24.297Z,82.60
2019-06-08T00:22:53.991Z,83.49
2019-06-08T00:25:24.230Z,83.43
2019-06-08T00:27:53.960Z,83.93
2019-06-08T00:30:23.607Z,82.11
2019-06-08T00:32:53.320Z,82.66
2019-06-08T00:35:22.982Z,82.73
2019-06-08T00:37:52.668Z,83.22
2019-06-08T00:40:23.117Z,83.76
2019-06-08T00:42:52.816Z,83.42
2019-06-08T00:45:23.607Z,82.67
2019-06-08T00:47:53.360Z,83.89
2019-06-08T00:50:23.073Z,83.76
2019-06-08T00:52:52.824Z,83.83
2019-06-08T00:55:23.767Z,83.75
2019-06-08T00:57:53.451Z,83.71
2019-06-08T01:00:24.524Z,83.05
2019-06-08T01:02:54.288Z,83.33
2019-06-08T01:05:24.110Z,83.59
2019-06-08T01:07:53.792Z,83.38
2019-06-08T01:10:23.770Z,83.54
2019-06-08T01:12:53.858Z,82.72
2019-06-08T01:15:31.155Z,82.69
2019-06-08T01:18:02.521Z,82.72
2019-06-08T01:20:28.012Z,82.86
2019-06-08T01:22:57.806Z,83.01
2019-06-08T01:25:27.981Z,82.88
2019-06-08T01:27:57.813Z,83.26
2019-06-08T01:30:28.527Z,83.76
2019-06-08T01:32:58.212Z,83.32
2019-06-08T01:35:28.863Z,83.69
2019-06-08T01:37:59.000Z,83.97
2019-06-08T01:40:29.554Z,83.92
2019-06-08T01:42:59.445Z,83.81
2019-06-08T01:45:32.970Z,84.03
2019-06-08T01:48:18.673Z,84.03
2019-06-08T01:50:36.132Z,84.04
2019-06-08T01:53:05.816Z,83.81
2019-06-08T01:55:35.491Z,84.14
2019-06-08T01:58:05.249Z,83.73
2019-06-08T02:00:40.761Z,84.17
2019-06-08T02:03:06.660Z,83.87
2019-06-08T02:05:36.419Z,83.98
2019-06-08T02:08:06.153Z,83.86
2019-06-08T02:10:35.938Z,83.76
2019-06-08T02:13:08.561Z,83.97
2019-06-08T02:15:37.000Z,83.92
2019-06-08T02:18:06.824Z,83.80
2019-06-08T02:20:36.555Z,83.94
2019-06-08T02:23:08.012Z,83.81
2019-06-08T02:37:14.134Z,85.33
2019-06-08T02:39:45.602Z,85.34
2019-06-08T02:44:00.162Z,85.37
2019-06-08T02:46:33.256Z,85.00
2019-06-08T03:49:40.537Z,85.72
2019-06-08T03:51:55.370Z,85.36
2019-06-08T03:54:25.804Z,85.01
2019-06-08T03:56:55.562Z,84.96
2019-06-08T03:59:25.360Z,84.98
2019-06-08T04:01:55.188Z,85.01
2019-06-08T04:04:26.322Z,85.10
2019-06-08T04:06:56.014Z,85.09
2019-06-08T04:09:25.951Z,85.19
2019-06-08T04:11:55.738Z,84.94
2019-06-08T04:14:26.169Z,84.42
2019-06-08T04:16:55.965Z,84.41
2019-06-08T04:19:25.961Z,83.80
2019-06-08T04:21:55.737Z,83.30
2019-06-08T04:24:25.866Z,83.25
2019-06-08T04:26:56.045Z,83.04
2019-06-08T04:29:25.958Z,82.25
2019-06-08T04:31:55.744Z,82.64
2019-06-08T04:34:25.902Z,82.66
2019-06-08T04:36:55.992Z,81.53
2019-06-08T04:39:25.745Z,81.48
2019-06-08T04:41:56.094Z,81.56
2019-06-08T04:44:25.866Z,81.23
2019-06-08T04:46:56.050Z,81.37
2019-06-08T04:49:25.821Z,80.69
2019-06-08T04:51:55.644Z,81.17
2019-06-08T04:54:26.061Z,81.75
2019-06-08T04:56:56.013Z,81.06
2019-06-08T04:59:25.807Z,80.98
2019-06-08T05:01:56.019Z,80.83
2019-06-08T05:04:25.811Z,80.65
2019-06-08T05:06:56.029Z,81.28
2019-06-08T05:09:25.930Z,80.50
2019-06-08T05:11:56.104Z,80.90
2019-06-08T05:14:25.905Z,81.16
2019-06-08T05:16:56.302Z,80.72
2019-06-08T05:19:26.061Z,81.49
2019-06-08T05:21:56.259Z,81.25
2019-06-08T05:24:25.876Z,80.99
2019-06-08T05:26:56.241Z,81.11
2019-06-08T05:29:25.900Z,81.09
2019-06-08T05:31:56.237Z,81.01
2019-06-08T05:34:26.493Z,80.53
2019-06-08T05:36:56.192Z,80.67
2019-06-08T05:39:26.090Z,80.18
2019-06-08T05:41:56.101Z,80.49
2019-06-08T05:44:25.792Z,80.80
2019-06-08T05:46:56.205Z,80.64
2019-06-08T05:49:25.999Z,80.95
2019-06-08T05:51:56.050Z,80.91
2019-06-08T05:54:25.743Z,80.87
2019-06-08T05:56:55.957Z,81.09
2019-06-08T05:59:26.056Z,80.77
2019-06-08T06:01:56.089Z,80.95
2019-06-08T06:04:25.756Z,80.86
2019-06-08T06:06:55.876Z,80.37
2019-06-08T06:09:25.536Z,80.24
2019-06-08T06:11:55.239Z,80.36
2019-06-08T06:14:25.144Z,80.21
2019-06-08T06:16:54.844Z,80.13
2019-06-08T06:19:24.543Z,79.80
2019-06-08T06:21:54.225Z,78.97
2019-06-08T06:24:23.910Z,79.24
2019-06-08T06:26:53.674Z,79.46
2019-06-08T06:29:23.360Z,79.03
2019-06-08T06:31:53.125Z,79.08
2019-06-08T06:34:22.816Z,78.09
2019-06-08T06:36:52.504Z,78.20
2019-06-08T06:39:22.299Z,78.27
2019-06-08T06:41:52.254Z,78.19
2019-06-08T06:44:22.034Z,77.78
2019-06-08T06:46:52.497Z,77.54
2019-06-08T06:49:22.265Z,76.90
2019-06-08T06:51:52.745Z,77.07
2019-06-08T06:54:22.520Z,76.97
2019-06-08T06:56:52.293Z,76.77
2019-06-08T06:59:22.259Z,75.85
2019-06-08T07:01:55.788Z,75.45
2019-06-08T07:04:23.995Z,75.50
2019-06-08T07:06:54.457Z,75.32
2019-06-08T07:09:24.334Z,75.22
2019-06-08T07:11:56.152Z,75.59
2019-06-08T07:14:25.557Z,74.87
2019-06-08T07:16:56.126Z,74.00
2019-06-08T07:19:26.083Z,74.08
2019-06-08T07:21:55.770Z,73.54
2019-06-08T07:24:25.444Z,73.07
2019-06-08T07:26:55.221Z,72.47
2019-06-08T07:29:24.884Z,72.48
2019-06-08T07:31:55.268Z,72.34
2019-06-08T07:34:25.132Z,72.05
2019-06-08T07:36:55.532Z,72.66
2019-06-08T07:39:25.368Z,72.81
2019-06-08T07:41:55.962Z,73.26
2019-06-08T07:44:25.722Z,73.33
2019-06-08T07:46:55.801Z,73.78
2019-06-08T07:49:26.212Z,73.58
2019-06-08T07:52:06.709Z,73.96
2019-06-08T07:54:27.572Z,72.41
2019-06-08T07:56:57.238Z,71.65
2019-06-08T07:59:27.595Z,71.57
2019-06-08T08:01:58.382Z,71.31
2019-06-08T08:04:28.129Z,71.47
2019-06-08T08:06:58.891Z,71.58
2019-06-08T08:09:29.026Z,71.47
2019-06-08T08:11:59.689Z,70.95
2019-06-08T08:14:31.504Z,70.82
2019-06-08T08:17:01.421Z,70.36
2019-06-08T08:19:31.210Z,68.93
2019-06-08T08:22:18.684Z,68.94
2019-06-08T08:24:32.895Z,67.37
2019-06-08T08:27:03.788Z,67.99
2019-06-08T08:29:33.715Z,66.72
2019-06-08T08:32:03.367Z,65.37
2019-06-08T08:34:33.073Z,64.86
2019-06-08T08:37:06.143Z,65.01
2019-06-08T08:39:34.302Z,65.29
2019-06-08T08:42:05.318Z,62.82
2019-06-08T08:44:35.201Z,62.64
2019-06-08T08:47:07.438Z,62.94
2019-06-08T08:49:37.996Z,61.16
2019-06-08T08:52:11.171Z,60.99
2019-06-08T08:54:42.541Z,59.40
2019-06-08T08:57:10.788Z,59.45
2019-06-08T08:59:40.465Z,57.85
2019-06-08T09:02:11.544Z,55.78
2019-06-08T09:04:41.266Z,54.60
2019-06-08T09:07:12.290Z,54.11
2019-06-08T09:09:42.051Z,53.97
2019-06-08T09:12:11.737Z,52.30
2019-06-08T09:14:41.879Z,52.83
2019-06-08T09:17:11.642Z,53.82
2019-06-08T09:19:41.297Z,53.03
2019-06-08T09:22:11.074Z,52.77
2019-06-08T09:24:40.766Z,52.97
2019-06-08T09:27:10.410Z,52.32
2019-06-08T09:29:40.083Z,51.81
2019-06-08T09:32:09.757Z,51.06
2019-06-08T09:34:39.531Z,51.76
2019-06-08T09:37:09.214Z,52.01
2019-06-08T09:39:38.944Z,52.19
2019-06-08T09:42:09.169Z,52.47
2019-06-08T09:44:38.887Z,52.15
2019-06-08T09:47:12.661Z,52.16
2019-06-08T09:49:39.996Z,51.79
2019-06-08T09:52:09.847Z,51.58
2019-06-08T09:54:39.536Z,51.99
2019-06-08T09:57:09.668Z,51.68
2019-06-08T09:59:40.875Z,52.09
2019-06-08T10:02:12.905Z,51.59
2019-06-08T10:04:42.041Z,50.62
2019-06-08T10:07:11.801Z,50.14
2019-06-08T10:09:43.435Z,48.92
2019-06-08T10:12:13.002Z,48.22
2019-06-08T10:14:42.735Z,49.65
2019-06-08T10:17:12.528Z,48.85
2019-06-08T10:19:42.297Z,47.79
2019-06-08T10:22:12.038Z,46.98
2019-06-08T10:24:41.822Z,47.56
2019-06-08T10:27:12.053Z,46.31
2019-06-08T10:29:41.978Z,47.48
2019-06-08T10:32:13.388Z,47.45
2019-06-08T10:34:43.710Z,48.37
2019-06-08T10:37:13.814Z,48.79
2019-06-08T10:39:43.622Z,47.75
2019-06-08T10:42:13.309Z,47.53
2019-06-08T10:44:43.086Z,48.35
2019-06-08T10:47:12.730Z,48.03
2019-06-08T10:49:42.518Z,47.06
2019-06-08T10:52:12.525Z,48.31
2019-06-08T10:54:42.233Z,47.89
2019-06-08T10:57:11.925Z,48.38
2019-06-08T10:59:41.574Z,49.20
2019-06-08T11:02:13.973Z,50.11
2019-06-08T11:04:43.524Z,49.61
2019-06-08T11:07:16.154Z,50.78
2019-06-08T11:09:44.658Z,51.73
2019-06-08T11:12:15.372Z,51.57
2019-06-08T11:14:48.029Z,51.59
2019-06-08T11:17:17.919Z,49.93
2019-06-08T11:19:48.106Z,48.02
2019-06-08T11:22:18.242Z,47.64
2019-06-08T11:24:48.580Z,46.69
2019-06-08T11:27:18.891Z,46.15
2019-06-08T11:29:48.569Z,45.80
2019-06-08T11:32:18.485Z,45.75
2019-06-08T11:34:48.801Z,46.99
2019-06-08T11:37:21.009Z,46.64
2019-06-08T11:39:49.963Z,46.91
2019-06-08T11:42:19.766Z,47.87
2019-06-08T11:44:51.124Z,48.41
2019-06-08T11:47:20.784Z,49.10
2019-06-08T11:49:50.459Z,49.75
2019-06-08T11:52:20.116Z,50.13
2019-06-08T11:54:49.900Z,50.62
2019-06-08T11:57:19.728Z,51.25
2019-06-08T11:59:50.364Z,51.13
2019-06-08T12:02:20.016Z,51.67
2019-06-08T12:04:49.795Z,51.55
2019-06-08T12:07:19.623Z,52.02
2019-06-08T12:09:50.339Z,52.39
2019-06-08T12:12:21.385Z,52.41
2019-06-08T12:14:51.419Z,53.01
2019-06-08T12:17:22.557Z,53.60
2019-06-08T12:19:52.345Z,54.06
2019-06-08T12:22:22.037Z,54.27
2019-06-08T12:24:51.769Z,54.96
2019-06-08T12:27:29.863Z,54.91
2019-06-08T12:29:53.035Z,54.46
2019-06-08T12:32:22.809Z,55.08
2019-06-08T12:34:52.466Z,55.75
2019-06-08T12:37:22.529Z,55.41
2019-06-08T12:39:52.208Z,54.71
2019-06-08T12:42:24.785Z,54.67
2019-06-08T12:44:53.362Z,54.49
2019-06-08T12:47:26.879Z,54.65
2019-06-08T12:49:54.656Z,54.21
2019-06-08T12:52:24.307Z,53.53
2019-06-08T12:55:02.610Z,53.62
2019-06-08T12:57:25.581Z,51.70
2019-06-08T12:59:55.219Z,52.88
2019-06-08T13:02:24.998Z,52.59
2019-06-08T13:04:54.744Z,52.68
2019-06-08T13:07:24.450Z,52.48
2019-06-08T13:09:54.233Z,52.22
2019-06-08T13:12:23.987Z,52.02
2019-06-08T13:14:53.681Z,51.79
2019-06-08T13:17:23.452Z,51.56
2019-06-08T13:19:53.129Z,51.32
2019-06-08T13:22:27.858Z,51.29
2019-06-08T13:24:54.264Z,51.35
2019-06-08T13:27:23.958Z,50.91
2019-06-08T13:29:53.716Z,50.62
2019-06-08T13:32:23.402Z,49.24
2019-06-08T13:34:53.067Z,49.92
2019-06-08T13:37:22.746Z,47.78
2019-06-08T13:39:52.528Z,46.74
2019-06-08T13:42:23.100Z,46.49
2019-06-08T13:44:53.044Z,46.35
2019-06-08T13:47:23.105Z,46.27
2019-06-08T13:49:52.846Z,45.68
2019-06-08T13:52:24.159Z,45.55
2019-06-08T13:54:53.873Z,44.22
2019-06-08T13:57:25.087Z,44.12
2019-06-08T13:59:54.873Z,43.89
2019-06-08T14:02:28.408Z,43.09
2019-06-08T14:04:58.960Z,43.57
2019-06-08T14:07:34.235Z,43.16
2019-06-08T14:09:59.786Z,41.26
2019-06-08T14:12:30.901Z,40.52
2019-06-08T14:15:00.813Z,37.68
2019-06-08T14:17:30.559Z,37.97
2019-06-08T14:20:00.641Z,38.53
2019-06-08T14:22:30.499Z,38.00
2019-06-08T14:25:00.647Z,36.68
2019-06-08T14:27:32.927Z,36.73
2019-06-08T14:30:01.776Z,36.19
2019-06-08T14:32:31.450Z,35.20
2019-06-08T14:35:02.987Z,35.50
2019-06-08T14:37:32.972Z,34.29
2019-06-08T14:40:02.704Z,34.13
2019-06-08T14:42:32.824Z,34.47
2019-06-08T14:45:02.593Z,34.40
2019-06-08T14:47:32.902Z,34.91
2019-06-08T14:50:02.588Z,34.50
2019-06-08T14:52:32.843Z,34.17
2019-06-08T14:55:02.793Z,34.41
2019-06-08T14:57:32.872Z,34.97
2019-06-08T15:00:08.762Z,34.74
2019-06-08T15:02:34.023Z,35.21
2019-06-08T15:05:04.708Z,33.94
2019-06-08T15:07:34.388Z,34.56
2019-06-08T15:10:05.077Z,34.38
2019-06-08T15:12:34.855Z,34.85
2019-06-08T15:15:08.346Z,33.70
2019-06-08T15:17:38.233Z,33.71
2019-06-08T15:20:08.871Z,34.30
2019-06-08T15:22:39.102Z,34.29
2019-06-08T15:25:11.081Z,34.40
2019-06-08T15:27:40.797Z,34.61
2019-06-08T15:30:11.106Z,34.08
2019-06-08T15:32:40.754Z,33.13
2019-06-08T15:35:10.575Z,33.42
2019-06-08T15:37:40.846Z,33.42
2019-06-08T15:40:10.913Z,33.64
2019-06-08T15:42:40.593Z,34.67
2019-06-08T15:45:10.438Z,34.27
2019-06-08T15:47:40.824Z,33.98
2019-06-08T15:50:11.198Z,33.86
2019-06-08T15:52:40.969Z,33.43
2019-06-08T15:55:11.238Z,33.38
2019-06-08T15:57:41.524Z,32.70
2019-06-08T16:00:12.844Z,33.16
2019-06-08T16:02:43.518Z,33.32
2019-06-08T16:05:13.541Z,32.64
2019-06-08T16:07:43.321Z,33.61
2019-06-08T16:10:13.408Z,33.26
2019-06-08T16:12:43.189Z,32.92
2019-06-08T16:15:13.107Z,32.57
2019-06-08T16:17:42.853Z,33.24
2019-06-08T16:20:12.704Z,32.91
2019-06-08T16:22:42.552Z,33.03
2019-06-08T16:25:12.409Z,32.92
2019-06-08T16:27:42.174Z,33.18
2019-06-08T16:30:12.088Z,33.26
2019-06-08T16:32:41.881Z,32.84
2019-06-08T16:35:11.891Z,33.41
2019-06-08T16:37:41.565Z,33.42
2019-06-08T16:40:11.747Z,33.92
2019-06-08T16:42:41.935Z,33.22
2019-06-08T16:45:11.652Z,33.35
2019-06-08T16:47:43.698Z,34.10
2019-06-08T16:50:23.911Z,33.33
2019-06-08T16:52:44.330Z,33.73
2019-06-08T16:55:14.142Z,33.51
2019-06-08T16:57:43.973Z,33.41
2019-06-08T17:00:32.412Z,33.15
2019-06-08T17:02:45.686Z,33.38
2019-06-08T17:05:15.529Z,33.09
2019-06-08T17:07:45.176Z,33.68
2019-06-08T17:10:15.026Z,33.76
2019-06-08T17:12:44.706Z,33.23
2019-06-08T17:15:14.589Z,34.11
2019-06-08T17:17:44.276Z,33.74
2019-06-08T17:20:15.376Z,34.29
2019-06-08T17:22:45.150Z,34.33
2019-06-08T17:25:15.341Z,34.14
2019-06-08T17:27:45.018Z,33.17
2019-06-08T17:30:15.127Z,34.26
2019-06-08T17:32:44.805Z,34.65
2019-06-08T17:35:14.666Z,34.15
2019-06-08T17:37:44.341Z,34.58
2019-06-08T17:40:14.469Z,35.03
2019-06-08T17:42:44.122Z,34.96
2019-06-08T17:45:14.435Z,35.58
2019-06-08T17:47:44.177Z,35.39
2019-06-08T17:50:14.094Z,35.92
2019-06-08T17:52:43.915Z,35.89
2019-06-08T17:55:13.864Z,36.62
2019-06-08T17:57:52.736Z,36.97
2019-06-08T18:00:15.767Z,37.11
2019-06-08T18:02:48.207Z,37.79
2019-06-08T18:05:18.233Z,38.00
2019-06-08T18:07:49.020Z,37.60
2019-06-08T18:10:18.958Z,37.61
2019-06-08T18:12:49.447Z,37.88
2019-06-08T18:15:19.265Z,38.50
2019-06-08T18:17:49.128Z,39.22
2019-06-08T18:20:21.449Z,39.04
2019-06-08T18:22:51.204Z,40.18
2019-06-08T18:25:20.987Z,39.34
2019-06-08T18:28:05.010Z,39.92
2019-06-08T18:30:24.359Z,39.72
2019-06-08T18:32:54.116Z,40.09
2019-06-08T18:35:23.900Z,40.35
2019-06-08T18:37:53.680Z,40.21
2019-06-08T18:40:23.437Z,40.67
2019-06-08T18:42:53.457Z,40.67
2019-06-08T18:45:23.201Z,41.48
2019-06-08T18:47:53.043Z,41.69
2019-06-08T18:50:22.703Z,42.18
2019-06-08T18:52:52.385Z,41.94
2019-06-08T18:55:22.139Z,42.61
2019-06-08T18:57:51.791Z,42.51
2019-06-08T19:00:24.519Z,43.09
2019-06-08T19:02:55.850Z,43.07
2019-06-08T19:05:27.957Z,43.62
2019-06-08T19:07:57.902Z,44.21
2019-06-08T19:10:33.102Z,44.63
2019-06-08T19:13:03.207Z,46.74
2019-06-08T19:15:38.838Z,47.06
2019-06-08T19:18:08.129Z,48.98
2019-06-08T19:20:43.141Z,49.08
2019-06-08T19:23:09.686Z,49.39
2019-06-08T19:25:42.545Z,50.77
2019-06-08T19:28:10.917Z,50.31
2019-06-08T19:30:42.574Z,50.74
2019-06-08T19:33:12.016Z,51.76
2019-06-08T19:35:42.367Z,52.59
2019-06-08T19:38:12.140Z,52.60
2019-06-08T19:40:42.629Z,53.03
2019-06-08T19:43:12.375Z,53.63
2019-06-08T19:45:43.813Z,53.72
2019-06-08T19:48:13.523Z,56.19
2019-06-08T19:50:43.283Z,56.35
2019-06-08T19:53:12.971Z,59.31
2019-06-08T19:55:43.162Z,61.02
2019-06-08T19:58:12.873Z,58.29
2019-06-08T20:00:44.180Z,58.73
2019-06-08T20:03:14.053Z,56.80
2019-06-08T20:05:45.219Z,59.50
2019-06-08T20:08:17.446Z,60.46
2019-06-08T20:10:48.056Z,59.97
2019-06-08T20:13:18.079Z,60.99
2019-06-08T20:15:54.729Z,60.02
2019-06-08T20:18:19.311Z,59.69
2019-06-08T20:20:52.473Z,62.83
2019-06-08T20:23:20.465Z,62.82
2019-06-08T20:25:51.352Z,64.47
2019-06-08T20:28:21.303Z,70.72
2019-06-08T20:30:51.084Z,66.41
2019-06-08T20:33:20.773Z,66.83
2019-06-08T20:35:51.922Z,66.30
2019-06-08T20:38:34.075Z,66.37
2019-06-08T20:40:53.141Z,66.77
2019-06-08T20:43:22.918Z,66.16
2019-06-08T20:45:53.476Z,66.32
2019-06-08T20:48:23.263Z,67.33
2019-06-08T20:50:53.736Z,67.76
2019-06-08T20:53:23.378Z,67.65
2019-06-08T20:55:53.929Z,66.91
2019-06-08T20:58:23.795Z,67.20
2019-06-08T21:00:54.248Z,67.44
2019-06-08T21:03:23.950Z,69.58
2019-06-08T21:05:54.249Z,67.09
2019-06-08T21:08:23.955Z,66.22
2019-06-08T21:10:54.597Z,66.92
2019-06-08T21:13:27.336Z,67.23
2019-06-08T21:16:00.304Z,68.32
2019-06-08T21:18:27.889Z,68.61
2019-06-08T21:20:58.010Z,69.87
2019-06-08T21:23:31.713Z,69.96
2019-06-08T21:26:00.246Z,68.85
2019-06-08T21:28:30.103Z,68.54
2019-06-08T21:31:02.181Z,67.25
2019-06-08T21:33:31.139Z,66.71
2019-06-08T21:36:04.833Z,66.89
2019-06-08T21:38:32.432Z,67.30
2019-06-08T21:41:03.017Z,66.61
2019-06-08T21:43:33.475Z,66.51
2019-06-08T21:46:03.114Z,67.15
2019-06-08T21:48:33.222Z,67.84
2019-06-08T21:51:02.978Z,68.07
2019-06-08T21:53:33.188Z,68.27
2019-06-08T21:56:02.871Z,68.73
2019-06-08T21:58:32.533Z,69.52
2019-06-08T22:01:02.215Z,70.17
2019-06-08T22:03:31.868Z,70.66
2019-06-08T22:06:02.181Z,70.94
2019-06-08T22:08:31.841Z,70.94
2019-06-08T22:11:02.670Z,69.60
2019-06-08T22:13:32.375Z,69.65
2019-06-08T22:16:04.004Z,68.77
2019-06-08T22:18:33.452Z,68.98
2019-06-08T22:21:03.650Z,69.25
2019-06-08T22:23:33.467Z,70.32
2019-06-08T22:26:03.671Z,72.63
2019-06-08T22:28:33.449Z,72.16
2019-06-08T22:31:03.861Z,72.37
2019-06-08T22:33:33.665Z,74.04
2019-06-08T22:36:03.360Z,73.47
2019-06-08T22:38:33.039Z,73.06
2019-06-08T22:41:03.519Z,73.32
2019-06-08T22:43:33.297Z,74.43
2019-06-08T22:46:03.517Z,73.53
2019-06-08T22:48:33.313Z,75.19
2019-06-08T22:51:04.290Z,73.81
2019-06-08T22:53:34.036Z,73.37
2019-06-08T22:56:04.463Z,73.02
2019-06-08T22:58:34.215Z,73.38
2019-06-08T23:01:07.738Z,73.53
2019-06-08T23:03:35.458Z,75.08
2019-06-08T23:06:06.403Z,75.68
2019-06-08T23:08:37.459Z,75.21
2019-06-08T23:11:08.539Z,75.22
2019-06-08T23:13:38.482Z,73.79
2019-06-08T23:16:09.082Z,73.66
2019-06-08T23:18:38.914Z,73.39
2019-06-08T23:21:09.066Z,73.87
2019-06-08T23:23:38.871Z,74.14
2019-06-08T23:26:10.348Z,75.14
2019-06-08T23:28:40.111Z,75.89
2019-06-08T23:31:21.520Z,77.19
2019-06-08T23:33:41.351Z,78.03
2019-06-08T23:38:42.863Z,75.99
2019-06-08T23:41:12.613Z,77.23
2019-06-08T23:43:42.395Z,75.42
2019-06-08T23:46:12.074Z,76.12
2019-06-08T23:48:41.733Z,74.91
2019-06-08T23:51:11.419Z,75.43
2019-06-08T23:53:41.076Z,76.46
2019-06-08T23:56:11.866Z,75.20
2019-06-08T23:58:41.733Z,75.06
